createdAt,value
2018-07-03T00:01:16.826Z,33.68
2018-07-03T00:03:21.929Z,33.98
2018-07-03T00:05:27.155Z,33.27
2018-07-03T00:07:32.178Z,33.68
2018-07-03T00:09:37.180Z,34.12
2018-07-03T00:11:42.443Z,34.22
2018-07-03T00:13:49.657Z,34.89
2018-07-03T00:15:54.534Z,34.64
2018-07-03T00:17:59.924Z,34.62
2018-07-03T00:20:05.382Z,34.64
2018-07-03T00:22:10.207Z,34.78
2018-07-03T00:24:15.062Z,35.51
2018-07-03T00:26:19.897Z,35.37
2018-07-03T00:28:24.818Z,34.78
2018-07-03T00:30:29.747Z,34.95
2018-07-03T00:32:34.585Z,34.89
2018-07-03T00:34:39.444Z,35.20
2018-07-03T00:36:44.314Z,35.55
2018-07-03T00:38:49.147Z,34.96
2018-07-03T00:40:53.981Z,36.00
2018-07-03T00:42:58.812Z,34.69
2018-07-03T00:45:03.785Z,35.35
2018-07-03T00:47:08.671Z,35.81
2018-07-03T00:49:13.467Z,35.86
2018-07-03T00:51:18.202Z,35.22
2018-07-03T00:53:23.061Z,36.33
2018-07-03T00:55:28.073Z,35.40
2018-07-03T00:57:32.816Z,35.85
2018-07-03T00:59:48.602Z,35.97
2018-07-03T01:01:53.394Z,36.26
2018-07-03T01:03:58.283Z,36.38
2018-07-03T01:06:04.225Z,35.81
2018-07-03T01:08:09.062Z,35.95
2018-07-03T01:10:13.842Z,36.55
2018-07-03T01:12:18.815Z,37.08
2018-07-03T01:14:23.828Z,37.57
2018-07-03T01:16:28.720Z,37.44
2018-07-03T01:18:33.869Z,37.85
2018-07-03T01:20:38.796Z,37.46
2018-07-03T01:22:44.009Z,37.78
2018-07-03T01:24:48.777Z,37.29
2018-07-03T01:26:53.512Z,37.64
2018-07-03T01:28:58.243Z,36.81
2018-07-03T01:31:03.010Z,37.55
2018-07-03T01:33:07.805Z,37.13
2018-07-03T01:35:13.015Z,37.78
2018-07-03T01:37:17.886Z,38.17
2018-07-03T01:39:22.742Z,37.61
2018-07-03T01:41:27.786Z,37.61
2018-07-03T01:43:32.739Z,38.10
2018-07-03T01:45:37.478Z,37.65
2018-07-03T01:47:42.420Z,38.46
2018-07-03T01:49:47.370Z,38.63
2018-07-03T01:51:52.197Z,38.49
2018-07-03T01:53:57.091Z,38.97
2018-07-03T01:56:02.042Z,39.27
2018-07-03T01:58:07.476Z,39.73
2018-07-03T02:00:12.579Z,40.00
2018-07-03T02:02:17.342Z,40.15
2018-07-03T02:04:22.202Z,41.06
2018-07-03T02:06:27.100Z,41.13
2018-07-03T02:08:31.847Z,41.41
2018-07-03T02:10:36.907Z,41.48
2018-07-03T02:12:41.851Z,42.04
2018-07-03T02:14:46.732Z,42.12
2018-07-03T02:16:51.901Z,42.35
2018-07-03T02:18:56.632Z,42.59
2018-07-03T02:21:01.500Z,43.08
2018-07-03T02:23:06.348Z,42.35
2018-07-03T02:25:11.162Z,42.76
2018-07-03T02:27:18.875Z,42.93
2018-07-03T02:29:24.160Z,42.99
2018-07-03T02:31:29.594Z,43.45
2018-07-03T02:33:34.329Z,43.15
2018-07-03T02:35:39.200Z,42.89
2018-07-03T02:37:44.155Z,42.71
2018-07-03T02:39:49.041Z,42.79
2018-07-03T02:41:54.095Z,43.18
2018-07-03T02:43:58.933Z,43.69
2018-07-03T02:46:03.813Z,43.89
2018-07-03T02:48:08.875Z,44.14
2018-07-03T02:50:13.756Z,43.64
2018-07-03T02:52:18.521Z,43.78
2018-07-03T02:54:23.736Z,43.94
2018-07-03T02:56:28.764Z,43.64
2018-07-03T02:58:33.826Z,44.07
2018-07-03T03:00:38.849Z,43.46
2018-07-03T03:02:43.716Z,43.70
2018-07-03T03:04:48.691Z,43.63
2018-07-03T03:06:53.592Z,44.20
2018-07-03T03:08:58.682Z,43.99
2018-07-03T03:11:03.546Z,44.50
2018-07-03T03:13:08.679Z,44.91
2018-07-03T03:15:13.773Z,44.44
2018-07-03T03:17:18.564Z,44.91
2018-07-03T03:19:23.486Z,44.73
2018-07-03T03:21:28.870Z,44.88
2018-07-03T03:23:33.705Z,44.84
2018-07-03T03:25:38.594Z,44.86
2018-07-03T03:27:43.502Z,44.96
2018-07-03T03:29:48.363Z,44.49
2018-07-03T03:31:53.211Z,44.49
2018-07-03T03:33:58.018Z,45.08
2018-07-03T03:36:02.851Z,44.47
2018-07-03T03:38:07.611Z,44.61
2018-07-03T03:40:12.527Z,44.38
2018-07-03T03:42:17.276Z,45.11
2018-07-03T03:44:22.078Z,45.05
2018-07-03T03:46:27.032Z,44.43
2018-07-03T03:48:31.839Z,45.17
2018-07-03T03:50:36.800Z,44.46
2018-07-03T03:52:41.601Z,44.89
2018-07-03T03:54:46.508Z,44.65
2018-07-03T03:56:51.578Z,44.75
2018-07-03T03:58:56.447Z,44.49
2018-07-03T04:01:01.227Z,45.02
2018-07-03T04:03:05.980Z,44.98
2018-07-03T04:05:10.877Z,44.24
2018-07-03T04:07:15.689Z,44.21
2018-07-03T04:09:20.519Z,44.76
2018-07-03T04:11:26.002Z,44.61
2018-07-03T04:13:30.872Z,44.70
2018-07-03T04:15:35.615Z,44.19
2018-07-03T04:17:40.476Z,44.71
2018-07-03T04:19:45.275Z,44.83
2018-07-03T04:21:50.021Z,44.42
2018-07-03T04:23:55.014Z,44.90
2018-07-03T04:26:01.171Z,44.28
2018-07-03T04:28:06.013Z,44.21
2018-07-03T04:30:10.864Z,44.76
2018-07-03T04:32:15.679Z,44.48
2018-07-03T04:34:21.423Z,44.92
2018-07-03T04:36:27.911Z,44.49
2018-07-03T04:38:32.836Z,44.02
2018-07-03T04:40:38.081Z,44.45
2018-07-03T04:42:43.108Z,44.53
2018-07-03T04:44:48.262Z,44.71
2018-07-03T04:46:53.426Z,44.72
2018-07-03T04:48:58.516Z,44.73
2018-07-03T04:51:03.426Z,44.43
2018-07-03T04:53:08.997Z,44.61
2018-07-03T04:55:13.904Z,44.67
2018-07-03T04:57:18.723Z,44.09
2018-07-03T04:59:23.608Z,44.81
2018-07-03T05:01:28.775Z,44.10
2018-07-03T05:03:33.528Z,44.44
2018-07-03T05:05:38.614Z,43.68
2018-07-03T05:07:43.473Z,44.22
2018-07-03T05:09:48.541Z,44.06
2018-07-03T05:11:53.361Z,43.83
2018-07-03T05:13:58.492Z,43.79
2018-07-03T05:16:03.757Z,44.52
2018-07-03T05:18:08.517Z,43.66
2018-07-03T05:20:13.274Z,43.40
2018-07-03T05:22:18.696Z,42.92
2018-07-03T05:24:24.517Z,43.45
2018-07-03T05:26:29.395Z,43.80
2018-07-03T05:28:38.218Z,43.46
2018-07-03T05:30:43.035Z,43.41
2018-07-03T05:32:47.970Z,43.42
2018-07-03T05:34:53.122Z,43.69
2018-07-03T05:36:58.431Z,43.65
2018-07-03T05:39:15.959Z,43.36
2018-07-03T05:41:22.701Z,43.13
2018-07-03T05:43:27.945Z,43.44
2018-07-03T05:45:33.369Z,43.32
2018-07-03T05:47:38.758Z,43.18
2018-07-03T05:49:44.204Z,43.52
2018-07-03T05:51:49.119Z,43.03
2018-07-03T05:53:54.219Z,43.36
2018-07-03T05:55:59.522Z,42.77
2018-07-03T05:58:04.717Z,43.10
2018-07-03T06:00:09.708Z,42.82
2018-07-03T06:02:14.671Z,41.94
2018-07-03T06:04:19.807Z,42.72
2018-07-03T06:06:24.712Z,42.35
2018-07-03T06:08:29.590Z,42.51
2018-07-03T06:10:34.475Z,41.60
2018-07-03T06:12:39.295Z,41.79
2018-07-03T06:14:44.570Z,40.91
2018-07-03T06:16:54.476Z,40.84
2018-07-03T06:18:59.566Z,41.04
2018-07-03T06:21:04.770Z,41.37
2018-07-03T06:23:10.196Z,40.60
2018-07-03T06:25:17.353Z,40.68
2018-07-03T06:27:22.131Z,40.20
2018-07-03T06:29:27.003Z,40.33
2018-07-03T06:31:34.892Z,39.92
2018-07-03T06:33:39.665Z,39.85
2018-07-03T06:35:44.595Z,40.54
2018-07-03T06:37:49.444Z,38.60
2018-07-03T06:39:54.626Z,37.65
2018-07-03T06:41:59.444Z,37.21
2018-07-03T06:44:04.378Z,37.22
2018-07-03T06:46:09.322Z,37.56
2018-07-03T06:48:14.176Z,37.05
2018-07-03T06:50:19.174Z,37.90
2018-07-03T06:52:24.041Z,37.27
2018-07-03T06:54:29.150Z,36.86
2018-07-03T06:56:34.479Z,36.31
2018-07-03T06:58:39.290Z,36.86
2018-07-03T07:00:44.289Z,37.33
2018-07-03T07:02:50.347Z,36.92
2018-07-03T07:04:55.522Z,36.46
2018-07-03T07:07:01.438Z,36.77
2018-07-03T07:09:10.363Z,36.75
2018-07-03T07:11:15.376Z,36.82
2018-07-03T07:13:20.364Z,36.93
2018-07-03T07:15:25.290Z,35.95
2018-07-03T07:17:30.195Z,36.59
2018-07-03T07:19:35.102Z,37.13
2018-07-03T07:21:39.998Z,36.08
2018-07-03T07:23:44.862Z,35.83
2018-07-03T07:25:50.126Z,34.79
2018-07-03T07:27:55.015Z,34.64
2018-07-03T07:29:59.917Z,35.51
2018-07-03T07:32:06.732Z,34.54
2018-07-03T07:36:17.047Z,34.52
2018-07-03T07:38:22.301Z,35.22
2018-07-03T07:40:27.981Z,33.95
2018-07-03T07:42:33.140Z,34.58
2018-07-03T07:44:38.225Z,34.82
2018-07-03T07:46:43.048Z,34.17
2018-07-03T07:48:47.920Z,34.00
2018-07-03T07:50:52.759Z,34.08
2018-07-03T07:52:57.627Z,33.95
2018-07-03T07:55:02.659Z,34.22
2018-07-03T07:57:07.726Z,33.66
2018-07-03T07:59:12.648Z,33.94
2018-07-03T08:01:17.491Z,32.81
2018-07-03T08:03:22.373Z,32.61
2018-07-03T08:05:27.474Z,32.78
2018-07-03T08:07:32.250Z,32.29
2018-07-03T08:09:37.177Z,32.15
2018-07-03T08:11:42.092Z,32.41
2018-07-03T08:13:47.071Z,31.08
2018-07-03T08:15:52.017Z,30.78
2018-07-03T08:17:56.819Z,30.95
2018-07-03T08:20:04.107Z,30.65
2018-07-03T08:22:11.284Z,30.40
2018-07-03T08:24:18.497Z,30.68
2018-07-03T08:26:24.622Z,30.09
2018-07-03T08:28:29.541Z,30.33
2018-07-03T08:30:34.887Z,30.25
2018-07-03T08:32:40.037Z,30.15
2018-07-03T08:34:45.046Z,30.37
2018-07-03T08:36:50.092Z,30.36
2018-07-03T08:38:55.027Z,29.40
2018-07-03T08:40:59.853Z,30.56
2018-07-03T08:43:04.868Z,29.71
2018-07-03T08:45:10.120Z,30.79
2018-07-03T08:47:15.954Z,30.16
2018-07-03T08:49:22.504Z,29.96
2018-07-03T08:51:27.819Z,30.41
2018-07-03T08:53:32.986Z,29.74
2018-07-03T08:55:37.948Z,29.99
2018-07-03T08:57:43.034Z,29.45
2018-07-03T08:59:48.026Z,29.03
2018-07-03T09:01:53.192Z,29.70
2018-07-03T09:03:58.257Z,28.64
2018-07-03T09:06:03.293Z,27.27
2018-07-03T09:08:08.110Z,27.63
2018-07-03T09:10:15.286Z,28.51
2018-07-03T09:12:20.311Z,29.04
2018-07-03T09:14:36.806Z,29.06
2018-07-03T09:16:41.730Z,28.61
2018-07-03T09:18:46.794Z,28.58
2018-07-03T09:20:52.313Z,29.51
2018-07-03T09:22:58.468Z,28.27
2018-07-03T09:25:03.576Z,29.41
2018-07-03T09:27:08.776Z,27.96
2018-07-03T09:29:13.717Z,27.53
2018-07-03T09:31:18.795Z,28.32
2018-07-03T09:33:30.101Z,28.21
2018-07-03T09:35:35.044Z,26.50
2018-07-03T09:37:40.176Z,27.07
2018-07-03T09:39:45.175Z,27.51
2018-07-03T09:41:50.409Z,27.29
2018-07-03T09:43:55.328Z,28.02
2018-07-03T09:46:00.374Z,27.43
2018-07-03T09:48:05.811Z,25.91
2018-07-03T09:50:11.387Z,25.06
2018-07-03T09:52:16.489Z,25.49
2018-07-03T09:54:22.379Z,25.47
2018-07-03T09:56:28.242Z,25.70
2018-07-03T09:58:33.626Z,25.67
2018-07-03T10:00:43.815Z,24.95
2018-07-03T10:02:49.042Z,25.77
2018-07-03T10:04:54.546Z,25.53
2018-07-03T10:07:00.213Z,24.94
2018-07-03T10:09:08.838Z,24.89
2018-07-03T10:11:14.453Z,24.72
2018-07-03T10:13:20.440Z,24.62
2018-07-03T10:15:27.223Z,25.62
2018-07-03T10:17:32.864Z,26.25
2018-07-03T10:19:41.884Z,24.71
2018-07-03T10:21:48.412Z,25.03
2018-07-03T10:23:54.098Z,25.96
2018-07-03T10:25:59.659Z,26.06
2018-07-03T10:28:05.117Z,26.20
2018-07-03T10:30:14.528Z,24.84
2018-07-03T10:32:21.583Z,24.77
2018-07-03T10:34:27.658Z,24.36
2018-07-03T10:36:33.939Z,25.10
2018-07-03T10:38:40.209Z,24.03
2018-07-03T10:40:46.188Z,24.07
2018-07-03T10:42:52.166Z,23.79
2018-07-03T10:45:03.107Z,24.59
2018-07-03T10:47:11.455Z,25.84
2018-07-03T10:49:20.741Z,24.18
2018-07-03T10:51:26.459Z,24.29
2018-07-03T10:53:31.929Z,24.30
2018-07-03T10:55:39.749Z,24.47
2018-07-03T10:57:45.691Z,24.23
2018-07-03T10:59:51.543Z,24.99
2018-07-03T11:01:56.504Z,25.52
2018-07-03T11:06:16.841Z,25.16
2018-07-03T11:08:22.355Z,24.88
2018-07-03T11:10:28.089Z,24.03
2018-07-03T11:12:33.777Z,23.87
2018-07-03T11:14:38.883Z,23.77
2018-07-03T11:16:46.929Z,23.77
2018-07-03T11:18:52.092Z,23.90
2018-07-03T11:20:57.589Z,24.64
2018-07-03T11:23:02.716Z,23.66
2018-07-03T11:25:10.143Z,25.37
2018-07-03T11:27:15.031Z,23.87
2018-07-03T11:29:21.174Z,25.16
2018-07-03T11:31:26.646Z,24.02
2018-07-03T11:33:32.036Z,24.64
2018-07-03T11:35:37.226Z,24.64
2018-07-03T11:37:42.479Z,22.55
2018-07-03T11:39:48.245Z,23.21
2018-07-03T11:41:56.141Z,23.26
2018-07-03T11:44:03.626Z,23.35
2018-07-03T11:46:08.990Z,23.56
2018-07-03T11:48:17.459Z,23.19
2018-07-03T11:50:23.136Z,22.93
2018-07-03T11:52:31.654Z,23.39
2018-07-03T11:54:38.796Z,23.43
2018-07-03T11:56:45.654Z,23.82
2018-07-03T11:58:50.717Z,24.12
2018-07-03T12:00:55.725Z,23.74
2018-07-03T12:03:03.363Z,23.32
2018-07-03T12:05:11.593Z,24.42
2018-07-03T12:07:19.026Z,23.36
2018-07-03T12:09:26.314Z,22.98
2018-07-03T12:11:34.031Z,23.00
2018-07-03T12:13:44.121Z,22.79
2018-07-03T12:15:51.367Z,22.67
2018-07-03T12:17:59.721Z,22.45
2018-07-03T12:20:08.310Z,23.01
2018-07-03T12:22:15.903Z,24.17
2018-07-03T12:24:26.102Z,24.11
2018-07-03T12:26:34.169Z,22.61
2018-07-03T12:28:42.192Z,23.38
2018-07-03T12:30:50.650Z,23.08
2018-07-03T12:32:58.807Z,22.66
2018-07-03T12:35:06.845Z,22.25
2018-07-03T12:37:14.489Z,23.30
2018-07-03T12:39:21.828Z,22.19
2018-07-03T12:41:30.875Z,23.17
2018-07-03T12:43:39.238Z,22.57
2018-07-03T12:45:48.991Z,22.15
2018-07-03T12:48:05.530Z,22.20
2018-07-03T12:50:13.600Z,21.71
2018-07-03T12:52:22.727Z,22.41
2018-07-03T12:54:33.896Z,21.39
2018-07-03T12:56:42.125Z,22.03
2018-07-03T12:58:51.494Z,21.82
2018-07-03T13:01:00.832Z,22.66
2018-07-03T13:03:09.671Z,22.34
2018-07-03T13:05:17.452Z,22.89
2018-07-03T13:07:26.533Z,23.71
2018-07-03T13:09:35.372Z,23.22
2018-07-03T13:11:43.677Z,22.03
2018-07-03T13:13:52.530Z,22.62
2018-07-03T13:15:59.612Z,22.11
2018-07-03T13:18:30.645Z,22.08
2018-07-03T13:20:37.898Z,21.67
2018-07-03T13:22:45.301Z,21.54
2018-07-03T13:24:53.156Z,20.40
2018-07-03T13:27:00.651Z,21.91
2018-07-03T13:29:08.110Z,22.28
2018-07-03T13:31:17.648Z,22.30
2018-07-03T13:33:25.448Z,22.70
2018-07-03T13:35:34.168Z,23.48
2018-07-03T13:37:42.017Z,23.16
2018-07-03T13:39:49.963Z,22.41
2018-07-03T13:41:57.914Z,23.38
2018-07-03T13:44:05.656Z,20.49
2018-07-03T13:46:13.562Z,21.19
2018-07-03T13:48:21.114Z,21.66
2018-07-03T13:50:28.647Z,21.31
2018-07-03T13:52:36.502Z,21.52
2018-07-03T13:54:43.541Z,21.14
2018-07-03T13:56:54.510Z,20.14
2018-07-03T13:59:04.884Z,20.32
2018-07-03T14:01:09.771Z,20.30
2018-07-03T14:03:14.659Z,20.96
2018-07-03T14:05:19.632Z,21.33
2018-07-03T14:07:24.668Z,22.15
2018-07-03T14:09:29.498Z,21.42
2018-07-03T14:11:34.355Z,20.98
2018-07-03T14:13:39.352Z,21.23
2018-07-03T14:15:44.274Z,21.43
2018-07-03T14:17:49.341Z,20.46
2018-07-03T14:20:01.087Z,21.06
2018-07-03T14:22:06.313Z,20.76
2018-07-03T14:24:11.150Z,21.31
2018-07-03T14:26:16.706Z,20.64
2018-07-03T14:28:21.721Z,21.60
2018-07-03T14:30:26.971Z,20.42
2018-07-03T14:32:31.861Z,21.72
2018-07-03T14:34:36.838Z,19.51
2018-07-03T14:36:42.159Z,20.07
2018-07-03T14:38:47.233Z,20.31
2018-07-03T14:40:52.165Z,20.05
2018-07-03T14:42:57.007Z,19.92
2018-07-03T14:45:02.108Z,19.82
2018-07-03T14:47:06.934Z,20.53
2018-07-03T14:49:11.887Z,18.48
2018-07-03T14:51:16.763Z,19.28
2018-07-03T14:53:21.669Z,20.14
2018-07-03T14:55:26.535Z,19.58
2018-07-03T14:57:32.062Z,18.87
2018-07-03T14:59:37.094Z,18.69
2018-07-03T15:01:42.166Z,18.97
2018-07-03T15:03:46.997Z,19.32
2018-07-03T15:05:51.926Z,20.82
2018-07-03T15:07:57.341Z,20.10
2018-07-03T15:10:02.360Z,18.95
2018-07-03T15:12:07.385Z,18.94
2018-07-03T15:14:12.282Z,19.52
2018-07-03T15:16:17.463Z,18.80
2018-07-03T15:18:22.423Z,19.14
2018-07-03T15:20:27.428Z,18.98
2018-07-03T15:22:32.265Z,19.62
2018-07-03T15:24:37.210Z,18.95
2018-07-03T15:26:42.757Z,19.74
2018-07-03T15:28:48.492Z,18.92
2018-07-03T15:30:53.913Z,19.08
2018-07-03T15:33:00.152Z,19.50
2018-07-03T15:35:06.079Z,18.99
2018-07-03T15:37:16.178Z,17.84
2018-07-03T15:39:21.711Z,18.52
2018-07-03T15:41:26.938Z,18.75
2018-07-03T15:43:31.971Z,18.64
2018-07-03T15:45:37.512Z,18.90
2018-07-03T15:47:42.777Z,19.20
2018-07-03T15:49:48.241Z,19.14
2018-07-03T15:51:55.256Z,18.55
2018-07-03T15:54:02.599Z,18.18
2018-07-03T15:56:07.833Z,18.02
2018-07-03T15:58:13.220Z,18.92
2018-07-03T16:00:18.731Z,18.82
2018-07-03T16:02:24.397Z,19.18
2018-07-03T16:05:15.213Z,19.86
2018-07-03T16:07:37.191Z,22.97
2018-07-03T16:09:43.594Z,19.90
2018-07-03T16:11:48.785Z,21.74
2018-07-03T16:13:54.714Z,17.92
2018-07-03T16:16:02.114Z,18.95
2018-07-03T16:18:09.192Z,18.42
2018-07-03T16:20:19.422Z,19.77
2018-07-03T16:22:24.559Z,19.29
2018-07-03T16:24:29.725Z,21.26
2018-07-03T16:26:36.679Z,19.22
2018-07-03T16:28:41.961Z,20.66
2018-07-03T16:30:47.132Z,18.70
2018-07-03T16:32:54.095Z,19.37
2018-07-03T16:34:59.757Z,19.08
2018-07-03T16:37:05.757Z,17.85
2018-07-03T16:39:16.946Z,18.36
2018-07-03T16:41:26.590Z,18.73
2018-07-03T16:43:32.648Z,18.99
2018-07-03T16:45:37.894Z,19.33
2018-07-03T16:47:43.174Z,18.95
2018-07-03T16:49:50.437Z,17.87
2018-07-03T16:51:55.503Z,17.58
2018-07-03T16:54:00.430Z,16.26
2018-07-03T16:56:05.725Z,18.07
2018-07-03T16:58:10.594Z,17.04
2018-07-03T17:00:30.077Z,16.93
2018-07-03T17:02:36.976Z,15.72
2018-07-03T17:04:41.656Z,15.81
2018-07-03T17:06:46.973Z,16.03
2018-07-03T17:08:52.985Z,15.07
2018-07-03T17:10:58.951Z,15.26
2018-07-03T17:13:03.791Z,15.02
2018-07-03T17:15:08.731Z,15.35
2018-07-03T17:17:13.584Z,15.09
2018-07-03T17:19:24.141Z,17.40
2018-07-03T17:21:29.946Z,17.81
2018-07-03T17:23:36.144Z,18.06
2018-07-03T17:25:44.344Z,16.50
2018-07-03T17:27:52.294Z,14.59
2018-07-03T17:29:59.015Z,16.08
2018-07-03T17:32:05.086Z,16.44
2018-07-03T17:34:10.147Z,15.71
2018-07-03T17:36:17.108Z,16.72
2018-07-03T17:38:23.212Z,16.86
2018-07-03T17:40:46.645Z,16.07
2018-07-03T17:44:00.560Z,15.83
2018-07-03T17:46:09.968Z,15.08
2018-07-03T17:48:15.719Z,15.36
2018-07-03T17:50:20.571Z,15.93
2018-07-03T17:52:25.616Z,15.75
2018-07-03T17:54:30.558Z,15.71
2018-07-03T17:56:36.204Z,15.62
2018-07-03T17:58:41.147Z,15.71
2018-07-03T18:01:16.904Z,15.80
2018-07-03T18:03:22.519Z,16.51
2018-07-03T18:05:28.506Z,16.86
2018-07-03T18:07:44.956Z,15.64
2018-07-03T18:09:51.820Z,16.94
2018-07-03T18:11:58.635Z,16.67
2018-07-03T18:14:04.456Z,16.99
2018-07-03T18:16:17.256Z,16.69
2018-07-03T18:18:23.199Z,16.61
2018-07-03T18:20:53.760Z,16.20
2018-07-03T18:22:58.837Z,17.11
2018-07-03T18:25:14.128Z,17.68
2018-07-03T18:27:25.598Z,17.09
2018-07-03T18:29:56.664Z,17.61
2018-07-03T18:32:11.667Z,17.93
2018-07-03T18:34:16.916Z,17.59
2018-07-03T18:36:21.549Z,18.55
2018-07-03T18:38:27.337Z,18.71
2018-07-03T18:40:35.848Z,19.82
2018-07-03T18:42:40.934Z,19.74
2018-07-03T18:44:46.089Z,19.40
2018-07-03T18:46:50.873Z,19.64
2018-07-03T18:48:56.380Z,19.93
2018-07-03T18:51:03.627Z,20.11
2018-07-03T18:53:09.878Z,19.79
2018-07-03T18:55:15.269Z,20.36
2018-07-03T18:57:21.064Z,19.67
2018-07-03T18:59:26.079Z,20.72
2018-07-03T19:01:31.044Z,20.32
2018-07-03T19:03:36.009Z,20.99
2018-07-03T19:05:40.835Z,21.73
2018-07-03T19:07:46.800Z,21.72
2018-07-03T19:09:52.082Z,21.69
2018-07-03T19:11:57.336Z,22.27
2018-07-03T19:14:02.580Z,22.10
2018-07-03T19:16:08.363Z,23.01
2018-07-03T19:18:13.714Z,22.01
2018-07-03T19:20:20.124Z,22.22
2018-07-03T19:22:26.534Z,21.89
2018-07-03T19:24:31.708Z,21.53
2018-07-03T19:26:37.905Z,21.20
2018-07-03T19:28:44.966Z,22.37
2018-07-03T19:30:50.576Z,23.10
2018-07-03T19:32:55.826Z,23.73
2018-07-03T19:35:01.467Z,23.59
2018-07-03T19:37:08.345Z,23.41
2018-07-03T19:39:15.123Z,24.14
2018-07-03T19:41:22.540Z,24.90
2018-07-03T19:43:30.085Z,24.47
2018-07-03T19:45:39.236Z,24.96
2018-07-03T19:47:46.128Z,24.87
2018-07-03T19:49:55.843Z,25.54
2018-07-03T19:52:03.591Z,26.00
2018-07-03T19:54:09.379Z,25.89
2018-07-03T19:56:19.790Z,26.24
2018-07-03T19:58:25.459Z,26.28
2018-07-03T20:00:30.555Z,26.07
2018-07-03T20:02:35.642Z,26.34
2018-07-03T20:04:40.929Z,26.78
2018-07-03T20:06:47.094Z,27.21
2018-07-03T20:08:52.448Z,26.99
2018-07-03T20:10:58.220Z,27.01
2018-07-03T20:13:03.557Z,27.66
2018-07-03T20:15:10.314Z,28.05
2018-07-03T20:17:19.827Z,27.33
2018-07-03T20:19:28.228Z,27.38
2018-07-03T20:21:33.716Z,28.04
2018-07-03T20:23:40.884Z,27.74
2018-07-03T20:25:46.300Z,28.58
2018-07-03T20:27:51.670Z,29.01
2018-07-03T20:29:59.443Z,29.07
2018-07-03T20:32:06.311Z,29.56
2018-07-03T20:34:12.205Z,29.30
2018-07-03T20:36:18.816Z,29.87
2018-07-03T20:38:24.292Z,29.63
2018-07-03T20:40:44.117Z,30.30
2018-07-03T20:42:48.936Z,30.65
2018-07-03T20:44:55.461Z,30.91
2018-07-03T20:47:02.994Z,31.04
2018-07-03T20:49:08.294Z,31.07
2018-07-03T20:51:13.521Z,31.40
2018-07-03T20:53:18.623Z,32.21
2018-07-03T20:55:24.365Z,31.70
2018-07-03T20:57:29.933Z,31.66
2018-07-03T20:59:34.913Z,31.70
2018-07-03T21:01:40.199Z,31.92
2018-07-03T21:03:46.085Z,30.97
2018-07-03T21:05:52.281Z,31.81
2018-07-03T21:08:01.610Z,32.05
2018-07-03T21:10:07.386Z,31.30
2018-07-03T21:12:12.539Z,31.71
2018-07-03T21:14:17.526Z,31.50
2018-07-03T21:16:22.570Z,31.34
2018-07-03T21:18:27.775Z,31.50
2018-07-03T21:20:32.956Z,31.24
2018-07-03T21:22:38.021Z,31.78
2018-07-03T21:24:42.913Z,31.41
2018-07-03T21:26:47.598Z,31.64
2018-07-03T21:28:53.045Z,31.39
2018-07-03T21:30:58.695Z,31.35
2018-07-03T21:33:03.598Z,31.99
2018-07-03T21:35:09.937Z,31.90
2018-07-03T21:37:14.873Z,32.37
2018-07-03T21:39:20.066Z,32.25
2018-07-03T21:41:40.149Z,31.96
2018-07-03T21:43:47.298Z,31.39
2018-07-03T21:45:53.529Z,31.72
2018-07-03T21:48:00.521Z,31.87
2018-07-03T21:50:05.961Z,31.54
2018-07-03T21:52:11.353Z,31.26
2018-07-03T21:54:16.825Z,31.93
2018-07-03T21:56:21.630Z,32.46
2018-07-03T21:58:27.024Z,31.98
2018-07-03T22:00:37.921Z,31.04
2018-07-03T22:02:42.829Z,31.69
2018-07-03T22:04:47.604Z,31.27
2018-07-03T22:06:52.534Z,31.82
2018-07-03T22:08:57.662Z,32.19
2018-07-03T22:11:02.562Z,31.72
2018-07-03T22:13:07.758Z,31.46
2018-07-03T22:15:12.585Z,31.79
2018-07-03T22:17:17.652Z,31.97
2018-07-03T22:19:22.494Z,32.65
2018-07-03T22:21:27.252Z,32.47
2018-07-03T22:23:32.145Z,33.12
2018-07-03T22:25:36.938Z,33.52
2018-07-03T22:27:46.602Z,33.26
2018-07-03T22:29:53.242Z,32.88
2018-07-03T22:31:59.744Z,33.50
2018-07-03T22:34:06.491Z,33.61
2018-07-03T22:36:23.299Z,33.50
2018-07-03T22:38:30.566Z,33.82
2018-07-03T22:40:45.544Z,33.75
2018-07-03T22:42:50.547Z,34.78
2018-07-03T22:44:55.411Z,34.47
2018-07-03T22:47:00.115Z,34.96
2018-07-03T22:49:05.136Z,35.10
2018-07-03T22:51:10.097Z,35.51
2018-07-03T22:53:14.881Z,35.30
2018-07-03T22:55:19.636Z,35.35
2018-07-03T22:57:24.427Z,35.66
2018-07-03T22:59:29.288Z,35.91
2018-07-03T23:01:34.105Z,36.65
2018-07-03T23:03:39.048Z,36.95
2018-07-03T23:05:43.900Z,36.69
2018-07-03T23:07:48.791Z,36.69
2018-07-03T23:09:53.568Z,37.48
2018-07-03T23:11:58.392Z,36.80
2018-07-03T23:14:03.310Z,37.75
2018-07-03T23:16:08.147Z,37.94
2018-07-03T23:18:12.914Z,37.99
2018-07-03T23:20:17.654Z,37.67
2018-07-03T23:22:22.503Z,37.53
2018-07-03T23:24:27.505Z,37.22
2018-07-03T23:26:32.352Z,37.60
2018-07-03T23:28:37.086Z,38.79
2018-07-03T23:30:41.903Z,37.85
2018-07-03T23:32:46.782Z,38.40
2018-07-03T23:34:51.494Z,38.93
2018-07-03T23:36:56.713Z,39.17
2018-07-03T23:39:01.437Z,38.65
2018-07-03T23:41:06.180Z,39.42
2018-07-03T23:43:10.882Z,39.56
2018-07-03T23:45:15.585Z,39.62
2018-07-03T23:47:36.833Z,39.75
2018-07-03T23:49:58.223Z,39.91
2018-07-03T23:52:19.495Z,40.27
2018-07-03T23:54:40.758Z,40.50
2018-07-03T23:57:02.151Z,41.03
2018-07-03T23:59:23.397Z,41.15
